createdAt,value
2018-06-21T00:00:06.328Z,40.50
2018-06-21T00:01:43.632Z,40.42
2018-06-21T00:03:20.510Z,41.13
2018-06-21T00:04:56.864Z,40.91
2018-06-21T00:06:33.999Z,40.85
2018-06-21T00:08:12.011Z,41.22
2018-06-21T00:09:48.627Z,40.85
2018-06-21T00:11:26.624Z,40.55
2018-06-21T00:13:03.085Z,41.12
2018-06-21T00:14:39.547Z,40.86
2018-06-21T00:16:16.928Z,41.34
2018-06-21T00:17:54.248Z,40.79
2018-06-21T00:19:30.859Z,40.91
2018-06-21T00:21:07.228Z,41.18
2018-06-21T00:22:43.830Z,41.10
2018-06-21T00:24:21.277Z,40.55
2018-06-21T00:25:57.687Z,40.71
2018-06-21T00:27:34.003Z,41.29
2018-06-21T00:29:10.780Z,40.69
2018-06-21T00:30:49.369Z,41.48
2018-06-21T00:32:27.326Z,40.78
2018-06-21T00:34:04.596Z,41.07
2018-06-21T00:35:43.069Z,41.37
2018-06-21T00:37:36.190Z,41.43
2018-06-21T00:39:13.359Z,40.90
2018-06-21T00:40:49.999Z,41.66
2018-06-21T00:42:27.888Z,41.55
2018-06-21T00:44:04.332Z,41.29
2018-06-21T00:45:41.063Z,41.46
2018-06-21T00:47:17.465Z,41.00
2018-06-21T00:48:53.877Z,40.97
2018-06-21T00:50:30.162Z,41.81
2018-06-21T00:52:06.547Z,41.79
2018-06-21T00:53:42.888Z,41.63
2018-06-21T00:56:22.757Z,41.23
2018-06-21T00:57:59.022Z,41.50
2018-06-21T00:59:35.330Z,41.67
2018-06-21T01:01:13.849Z,41.88
2018-06-21T01:02:50.247Z,41.85
2018-06-21T01:04:26.688Z,41.34
2018-06-21T01:06:03.486Z,41.99
2018-06-21T01:07:40.145Z,41.87
2018-06-21T01:09:16.540Z,41.91
2018-06-21T01:10:53.011Z,41.92
2018-06-21T01:12:30.166Z,41.20
2018-06-21T01:14:06.540Z,41.80
2018-06-21T01:17:50.925Z,41.95
2018-06-21T01:19:30.654Z,41.53
2018-06-21T01:21:08.516Z,41.95
2018-06-21T01:22:44.920Z,41.48
2018-06-21T01:24:24.333Z,41.42
2018-06-21T01:26:01.134Z,41.58
2018-06-21T01:27:38.392Z,41.59
2018-06-21T01:29:14.684Z,41.52
2018-06-21T01:30:51.269Z,42.24
2018-06-21T01:32:27.720Z,41.60
2018-06-21T01:34:04.259Z,42.26
2018-06-21T01:35:42.539Z,41.75
2018-06-21T01:37:29.502Z,42.22
2018-06-21T01:39:27.956Z,41.99
2018-06-21T01:41:04.351Z,42.14
2018-06-21T01:42:41.988Z,42.17
2018-06-21T01:44:18.287Z,42.01
2018-06-21T01:45:55.077Z,42.31
2018-06-21T01:47:31.384Z,42.36
2018-06-21T01:49:08.002Z,42.06
2018-06-21T01:50:44.662Z,42.52
2018-06-21T01:52:21.222Z,41.78
2018-06-21T01:53:57.564Z,42.04
2018-06-21T01:55:34.285Z,42.34
2018-06-21T01:57:11.593Z,42.03
2018-06-21T01:58:47.877Z,42.59
2018-06-21T02:00:25.958Z,42.77
2018-06-21T02:02:03.321Z,42.12
2018-06-21T02:03:40.620Z,42.08
2018-06-21T02:05:16.945Z,42.61
2018-06-21T02:06:53.223Z,42.34
2018-06-21T02:08:30.688Z,42.27
2018-06-21T02:10:07.496Z,42.24
2018-06-21T02:11:43.812Z,42.38
2018-06-21T02:13:20.213Z,42.68
2018-06-21T02:14:58.379Z,42.61
2018-06-21T02:16:34.944Z,42.27
2018-06-21T02:18:11.210Z,42.28
2018-06-21T02:19:47.481Z,42.33
2018-06-21T02:21:26.917Z,42.41
2018-06-21T02:23:03.409Z,42.83
2018-06-21T02:24:40.280Z,42.92
2018-06-21T02:26:16.595Z,42.61
2018-06-21T02:27:53.269Z,42.60
2018-06-21T02:29:29.630Z,42.76
2018-06-21T02:31:06.372Z,43.05
2018-06-21T02:32:42.902Z,43.22
2018-06-21T02:34:19.594Z,43.32
2018-06-21T02:35:55.929Z,42.70
2018-06-21T02:37:32.240Z,43.38
2018-06-21T02:39:10.405Z,43.49
2018-06-21T02:40:48.046Z,42.82
2018-06-21T02:42:24.561Z,42.86
2018-06-21T02:44:00.830Z,43.29
2018-06-21T02:45:37.816Z,42.79
2018-06-21T02:47:14.540Z,42.97
2018-06-21T02:48:52.490Z,43.46
2018-06-21T02:50:31.501Z,43.25
2018-06-21T02:52:09.240Z,42.91
2018-06-21T02:53:46.086Z,43.00
2018-06-21T02:55:22.983Z,43.66
2018-06-21T02:56:59.871Z,43.72
2018-06-21T02:58:37.324Z,43.74
2018-06-21T03:00:15.103Z,43.37
2018-06-21T03:01:51.865Z,43.14
2018-06-21T03:03:28.402Z,43.70
2018-06-21T03:05:04.769Z,43.55
2018-06-21T03:06:42.380Z,43.91
2018-06-21T03:08:18.697Z,43.42
2018-06-21T03:10:01.498Z,43.38
2018-06-21T03:11:38.883Z,43.76
2018-06-21T03:13:16.303Z,43.45
2018-06-21T03:14:55.512Z,43.55
2018-06-21T03:16:32.841Z,44.07
2018-06-21T03:18:09.236Z,44.04
2018-06-21T03:19:47.193Z,44.04
2018-06-21T03:21:24.837Z,43.52
2018-06-21T03:23:00.999Z,44.17
2018-06-21T03:24:39.600Z,44.34
2018-06-21T03:26:17.858Z,43.67
2018-06-21T03:27:54.136Z,43.64
2018-06-21T03:29:30.432Z,43.61
2018-06-21T03:31:07.038Z,43.76
2018-06-21T03:32:44.400Z,44.14
2018-06-21T03:34:20.745Z,44.42
2018-06-21T03:35:57.662Z,43.74
2018-06-21T03:37:34.007Z,43.88
2018-06-21T03:39:10.652Z,43.91
2018-06-21T03:40:47.738Z,43.96
2018-06-21T03:42:24.290Z,44.59
2018-06-21T03:44:00.544Z,44.71
2018-06-21T03:45:37.171Z,44.65
2018-06-21T03:47:13.479Z,44.11
2018-06-21T03:48:49.700Z,44.81
2018-06-21T03:50:26.051Z,44.78
2018-06-21T03:52:02.758Z,44.72
2018-06-21T03:53:39.021Z,44.76
2018-06-21T03:55:15.316Z,44.35
2018-06-21T03:56:51.541Z,44.74
2018-06-21T03:58:28.280Z,44.70
2018-06-21T04:00:04.761Z,44.94
2018-06-21T04:01:41.281Z,44.80
2018-06-21T04:03:17.555Z,44.75
2018-06-21T04:04:54.806Z,44.62
2018-06-21T04:06:31.112Z,44.76
2018-06-21T04:08:10.592Z,44.52
2018-06-21T04:09:47.564Z,44.89
2018-06-21T04:11:24.316Z,45.09
2018-06-21T04:13:00.547Z,44.89
2018-06-21T04:14:36.921Z,45.40
2018-06-21T04:16:13.735Z,44.77
2018-06-21T04:17:51.316Z,44.71
2018-06-21T04:19:29.409Z,45.33
2018-06-21T04:21:06.756Z,45.17
2018-06-21T04:22:43.008Z,45.28
2018-06-21T04:24:19.741Z,45.52
2018-06-21T04:25:56.057Z,44.90
2018-06-21T04:27:34.501Z,45.58
2018-06-21T04:29:11.020Z,45.14
2018-06-21T04:30:50.755Z,45.46
2018-06-21T04:32:27.139Z,44.96
2018-06-21T04:34:03.478Z,45.05
2018-06-21T04:35:39.755Z,45.63
2018-06-21T04:37:16.621Z,45.40
2018-06-21T04:38:53.112Z,45.65
2018-06-21T04:40:29.348Z,45.66
2018-06-21T04:42:05.711Z,44.98
2018-06-21T04:43:42.544Z,45.00
2018-06-21T04:45:19.501Z,45.51
2018-06-21T04:46:56.721Z,45.57
2018-06-21T04:48:34.487Z,45.37
2018-06-21T04:50:14.807Z,45.68
2018-06-21T04:51:52.222Z,45.29
2018-06-21T04:53:31.696Z,45.49
2018-06-21T04:55:07.991Z,45.15
2018-06-21T04:56:45.691Z,45.83
2018-06-21T04:58:22.315Z,45.73
2018-06-21T04:59:58.603Z,45.48
2018-06-21T05:01:36.240Z,45.37
2018-06-21T05:04:49.998Z,46.07
2018-06-21T05:06:27.249Z,45.46
2018-06-21T05:08:05.816Z,45.38
2018-06-21T05:09:43.215Z,45.51
2018-06-21T05:11:19.970Z,45.42
2018-06-21T05:12:56.780Z,46.10
2018-06-21T05:14:34.464Z,46.12
2018-06-21T05:16:11.060Z,45.61
2018-06-21T05:17:48.168Z,45.61
2018-06-21T05:19:25.493Z,45.60
2018-06-21T05:21:02.334Z,46.16
2018-06-21T05:22:39.055Z,46.31
2018-06-21T05:24:15.463Z,45.73
2018-06-21T05:25:51.816Z,45.78
2018-06-21T05:27:28.003Z,46.39
2018-06-21T05:29:04.869Z,46.30
2018-06-21T05:30:41.268Z,46.50
2018-06-21T05:32:17.480Z,46.41
2018-06-21T05:33:54.686Z,45.96
2018-06-21T05:35:31.281Z,45.93
2018-06-21T05:37:08.249Z,46.68
2018-06-21T05:38:44.630Z,46.01
2018-06-21T05:40:33.155Z,46.61
2018-06-21T05:42:11.014Z,46.32
2018-06-21T05:43:47.468Z,46.66
2018-06-21T05:45:26.247Z,46.26
2018-06-21T05:47:02.533Z,46.03
2018-06-21T05:48:39.146Z,46.31
2018-06-21T05:50:15.524Z,46.26
2018-06-21T05:51:53.351Z,46.83
2018-06-21T05:53:29.595Z,46.17
2018-06-21T05:55:06.240Z,46.27
2018-06-21T05:56:44.559Z,46.90
2018-06-21T05:58:20.825Z,46.32
2018-06-21T05:59:57.749Z,46.78
2018-06-21T06:01:37.661Z,46.47
2018-06-21T06:03:16.031Z,47.05
2018-06-21T06:04:53.215Z,46.86
2018-06-21T06:06:31.487Z,46.76
2018-06-21T06:08:11.291Z,46.51
2018-06-21T06:09:50.655Z,47.19
2018-06-21T06:11:27.506Z,46.67
2018-06-21T06:13:04.007Z,46.66
2018-06-21T06:14:41.688Z,47.28
2018-06-21T06:16:18.251Z,47.24
2018-06-21T06:17:54.495Z,47.05
2018-06-21T06:19:32.596Z,46.90
2018-06-21T06:21:10.240Z,47.07
2018-06-21T06:22:47.283Z,47.02
2018-06-21T06:24:23.915Z,47.02
2018-06-21T06:26:00.323Z,47.00
2018-06-21T06:27:38.996Z,47.50
2018-06-21T06:29:16.469Z,47.04
2018-06-21T06:30:53.022Z,47.00
2018-06-21T06:32:29.269Z,47.33
2018-06-21T06:34:06.064Z,47.68
2018-06-21T06:35:43.480Z,47.33
2018-06-21T06:37:19.858Z,47.26
2018-06-21T06:39:01.542Z,47.40
2018-06-21T06:40:38.263Z,47.94
2018-06-21T06:42:16.472Z,47.43
2018-06-21T06:43:52.795Z,47.44
2018-06-21T06:45:29.426Z,48.07
2018-06-21T06:47:09.400Z,47.48
2018-06-21T06:48:46.203Z,48.21
2018-06-21T06:50:22.637Z,48.29
2018-06-21T06:51:58.920Z,48.49
2018-06-21T06:53:35.564Z,48.13
2018-06-21T06:55:11.928Z,48.50
2018-06-21T06:56:48.675Z,47.84
2018-06-21T06:58:27.183Z,48.48
2018-06-21T07:00:08.239Z,47.92
2018-06-21T07:01:45.362Z,48.49
2018-06-21T07:03:21.849Z,48.52
2018-06-21T07:05:00.390Z,48.63
2018-06-21T07:06:38.964Z,48.09
2018-06-21T07:08:17.660Z,48.67
2018-06-21T07:09:54.556Z,48.27
2018-06-21T07:11:30.840Z,48.17
2018-06-21T07:13:07.071Z,48.32
2018-06-21T07:14:45.733Z,48.73
2018-06-21T07:16:22.388Z,48.76
2018-06-21T07:17:59.292Z,48.33
2018-06-21T07:21:28.540Z,48.95
2018-06-21T07:23:05.498Z,49.06
2018-06-21T07:24:43.631Z,49.23
2018-06-21T07:26:20.651Z,48.73
2018-06-21T07:27:57.515Z,49.23
2018-06-21T07:29:35.491Z,48.93
2018-06-21T07:31:17.681Z,49.45
2018-06-21T07:32:54.535Z,49.37
2018-06-21T07:34:33.191Z,48.97
2018-06-21T07:36:09.471Z,49.50
2018-06-21T07:37:46.887Z,49.46
2018-06-21T07:39:23.965Z,49.08
2018-06-21T07:41:00.822Z,49.13
2018-06-21T07:42:41.432Z,49.12
2018-06-21T07:44:18.780Z,49.81
2018-06-21T07:45:57.073Z,49.76
2018-06-21T07:47:33.363Z,49.87
2018-06-21T07:49:12.575Z,49.17
2018-06-21T07:50:49.303Z,49.88
2018-06-21T07:52:25.785Z,49.27
2018-06-21T07:54:03.660Z,49.76
2018-06-21T07:55:39.965Z,49.36
2018-06-21T07:57:16.653Z,49.32
2018-06-21T07:58:58.639Z,49.40
2018-06-21T08:00:37.748Z,49.57
2018-06-21T08:02:14.021Z,49.99
2018-06-21T08:03:52.064Z,49.38
2018-06-21T08:05:28.288Z,49.94
2018-06-21T08:07:05.527Z,49.48
2018-06-21T08:08:41.819Z,49.85
2018-06-21T08:10:23.409Z,50.05
2018-06-21T08:11:59.716Z,49.71
2018-06-21T08:13:40.575Z,49.70
2018-06-21T08:15:20.269Z,49.80
2018-06-21T08:16:57.448Z,49.77
2018-06-21T08:18:35.926Z,50.21
2018-06-21T08:20:12.320Z,49.70
2018-06-21T08:21:48.648Z,49.72
2018-06-21T08:23:26.394Z,49.70
2018-06-21T08:25:02.688Z,49.72
2018-06-21T08:26:40.587Z,50.04
2018-06-21T08:28:17.132Z,49.85
2018-06-21T08:29:54.486Z,49.94
2018-06-21T08:31:31.054Z,50.24
2018-06-21T08:33:08.107Z,50.50
2018-06-21T08:34:45.851Z,49.93
2018-06-21T08:36:23.056Z,50.02
2018-06-21T08:38:00.026Z,50.03
2018-06-21T08:39:37.135Z,50.56
2018-06-21T08:41:13.427Z,50.61
2018-06-21T08:42:51.606Z,50.10
2018-06-21T08:44:30.508Z,50.69
2018-06-21T08:46:09.464Z,50.81
2018-06-21T08:47:45.721Z,50.27
2018-06-21T08:49:24.229Z,49.92
2018-06-21T08:51:07.000Z,50.24
2018-06-21T08:52:43.245Z,50.80
2018-06-21T08:54:25.477Z,50.76
2018-06-21T08:56:03.049Z,50.82
2018-06-21T08:57:39.443Z,50.81
2018-06-21T08:59:16.740Z,50.88
2018-06-21T09:00:54.530Z,50.61
2018-06-21T09:02:32.847Z,50.33
2018-06-21T09:04:14.179Z,50.37
2018-06-21T09:05:51.434Z,50.34
2018-06-21T09:07:33.527Z,50.38
2018-06-21T09:09:17.579Z,51.08
2018-06-21T09:10:53.867Z,51.07
2018-06-21T09:12:36.964Z,50.48
2018-06-21T09:14:15.233Z,50.19
2018-06-21T09:15:52.847Z,50.95
2018-06-21T09:17:30.852Z,50.43
2018-06-21T09:19:10.297Z,50.35
2018-06-21T09:20:48.671Z,50.48
2018-06-21T09:22:25.521Z,51.00
2018-06-21T09:24:01.777Z,51.13
2018-06-21T09:25:38.970Z,50.61
2018-06-21T09:27:16.528Z,50.99
2018-06-21T09:28:52.834Z,51.24
2018-06-21T09:30:31.958Z,51.11
2018-06-21T09:32:09.481Z,50.73
2018-06-21T09:33:50.772Z,51.25
2018-06-21T09:35:28.324Z,50.63
2018-06-21T09:37:05.908Z,50.42
2018-06-21T09:38:47.904Z,50.56
2018-06-21T09:40:29.454Z,50.64
2018-06-21T09:42:11.651Z,51.13
2018-06-21T09:44:03.821Z,50.51
2018-06-21T09:45:36.308Z,50.52
2018-06-21T09:47:18.287Z,51.17
2018-06-21T09:48:56.211Z,51.07
2018-06-21T09:50:35.313Z,50.89
2018-06-21T09:52:15.247Z,50.53
2018-06-21T09:53:55.499Z,51.08
2018-06-21T09:55:38.562Z,51.04
2018-06-21T09:59:04.303Z,50.49
2018-06-21T10:00:51.795Z,50.65
2018-06-21T10:02:29.845Z,50.96
2018-06-21T10:04:08.363Z,50.61
2018-06-21T10:05:45.066Z,51.14
2018-06-21T10:07:22.060Z,50.61
2018-06-21T10:09:00.235Z,50.59
2018-06-21T10:10:36.576Z,51.13
2018-06-21T10:12:14.714Z,50.48
2018-06-21T10:13:51.608Z,50.90
2018-06-21T10:15:28.235Z,50.48
2018-06-21T10:17:09.453Z,50.99
2018-06-21T10:18:48.831Z,51.00
2018-06-21T10:20:25.941Z,50.96
2018-06-21T10:22:02.235Z,50.44
2018-06-21T10:23:41.187Z,50.46
2018-06-21T10:25:19.257Z,50.99
2018-06-21T10:27:07.831Z,50.41
2018-06-21T10:28:48.532Z,50.98
2018-06-21T10:30:27.419Z,51.07
2018-06-21T10:32:13.740Z,50.51
2018-06-21T10:33:51.812Z,50.57
2018-06-21T10:35:29.704Z,50.52
2018-06-21T10:37:06.732Z,50.62
2018-06-21T10:38:46.569Z,50.45
2018-06-21T10:40:26.250Z,51.03
2018-06-21T10:42:03.832Z,50.46
2018-06-21T10:43:42.176Z,50.95
2018-06-21T10:45:20.316Z,50.98
2018-06-21T10:46:57.033Z,50.34
2018-06-21T10:48:33.962Z,50.84
2018-06-21T10:50:12.555Z,50.30
2018-06-21T10:51:50.211Z,50.30
2018-06-21T10:53:26.479Z,51.10
2018-06-21T10:55:05.363Z,50.72
2018-06-21T10:56:43.229Z,50.38
2018-06-21T10:58:23.826Z,50.85
2018-06-21T11:00:03.592Z,50.28
2018-06-21T11:01:49.823Z,50.73
2018-06-21T11:03:29.236Z,50.15
2018-06-21T11:05:06.566Z,50.34
2018-06-21T11:06:46.027Z,50.93
2018-06-21T11:08:28.327Z,50.80
2018-06-21T11:10:04.872Z,51.06
2018-06-21T11:11:42.906Z,50.75
2018-06-21T11:13:22.192Z,50.29
2018-06-21T11:15:01.049Z,50.72
2018-06-21T11:16:40.216Z,50.96
2018-06-21T11:18:17.820Z,50.63
2018-06-21T11:19:57.730Z,50.43
2018-06-21T11:21:35.278Z,49.95
2018-06-21T11:23:20.835Z,49.92
2018-06-21T11:24:59.207Z,49.95
2018-06-21T11:26:37.143Z,50.53
2018-06-21T11:28:15.026Z,49.87
2018-06-21T11:29:54.464Z,50.51
2018-06-21T11:31:33.190Z,49.92
2018-06-21T11:33:11.285Z,50.51
2018-06-21T11:34:48.509Z,49.80
2018-06-21T11:36:28.281Z,49.74
2018-06-21T11:38:05.552Z,49.78
2018-06-21T11:39:42.509Z,50.29
2018-06-21T11:41:29.309Z,50.20
2018-06-21T11:43:05.804Z,49.67
2018-06-21T11:44:51.589Z,50.17
2018-06-21T11:46:29.718Z,49.35
2018-06-21T11:48:07.551Z,50.09
2018-06-21T11:49:44.580Z,49.11
2018-06-21T11:51:25.608Z,49.48
2018-06-21T11:53:04.516Z,49.39
2018-06-21T11:54:40.794Z,49.98
2018-06-21T11:56:17.533Z,49.47
2018-06-21T11:57:54.532Z,49.95
2018-06-21T11:59:31.891Z,49.94
2018-06-21T12:01:12.440Z,49.94
2018-06-21T12:02:50.594Z,49.32
2018-06-21T12:04:27.605Z,49.31
2018-06-21T12:06:07.989Z,49.61
2018-06-21T12:07:45.146Z,49.50
2018-06-21T12:09:21.489Z,49.05
2018-06-21T12:10:58.816Z,49.02
2018-06-21T12:12:37.407Z,49.37
2018-06-21T12:14:14.666Z,49.03
2018-06-21T12:15:52.468Z,49.57
2018-06-21T12:17:29.321Z,49.55
2018-06-21T12:19:07.111Z,49.47
2018-06-21T12:20:43.498Z,48.59
2018-06-21T12:22:20.370Z,48.86
2018-06-21T12:23:58.564Z,48.81
2018-06-21T12:25:38.405Z,48.71
2018-06-21T12:27:15.262Z,48.74
2018-06-21T12:28:55.208Z,49.38
2018-06-21T12:30:33.201Z,49.16
2018-06-21T12:32:18.456Z,48.78
2018-06-21T12:33:56.489Z,48.66
2018-06-21T12:35:36.978Z,49.15
2018-06-21T12:37:15.231Z,48.82
2018-06-21T12:38:52.389Z,48.69
2018-06-21T12:40:28.841Z,49.31
2018-06-21T12:42:08.063Z,49.06
2018-06-21T12:43:45.600Z,48.38
2018-06-21T12:45:22.173Z,48.95
2018-06-21T12:47:05.300Z,48.71
2018-06-21T12:48:41.508Z,48.27
2018-06-21T12:50:17.810Z,48.85
2018-06-21T12:51:55.371Z,48.15
2018-06-21T12:53:34.679Z,48.14
2018-06-21T12:55:13.536Z,48.10
2018-06-21T12:56:50.869Z,48.74
2018-06-21T12:58:27.534Z,48.15
2018-06-21T13:00:04.893Z,48.48
2018-06-21T13:01:42.341Z,48.24
2018-06-21T13:03:18.579Z,48.55
2018-06-21T13:04:58.129Z,48.49
2018-06-21T13:06:37.064Z,48.46
2018-06-21T13:08:16.638Z,47.87
2018-06-21T13:10:12.490Z,48.43
2018-06-21T13:13:06.991Z,48.44
2018-06-21T13:14:45.778Z,48.17
2018-06-21T13:16:23.396Z,47.56
2018-06-21T13:18:02.439Z,48.20
2018-06-21T13:19:38.722Z,47.59
2018-06-21T13:21:16.575Z,47.65
2018-06-21T13:22:55.281Z,48.12
2018-06-21T13:24:34.630Z,48.06
2018-06-21T13:26:14.441Z,48.03
2018-06-21T13:27:54.494Z,48.05
2018-06-21T13:29:33.937Z,47.42
2018-06-21T13:31:13.498Z,47.94
2018-06-21T13:32:49.976Z,47.78
2018-06-21T13:34:30.419Z,47.90
2018-06-21T13:36:07.642Z,47.27
2018-06-21T13:37:46.492Z,47.26
2018-06-21T13:39:22.816Z,47.54
2018-06-21T13:41:05.050Z,47.66
2018-06-21T13:42:43.365Z,47.13
2018-06-21T13:44:23.532Z,47.62
2018-06-21T13:46:01.039Z,47.05
2018-06-21T13:47:41.344Z,47.05
2018-06-21T13:49:20.934Z,47.54
2018-06-21T13:50:58.256Z,47.18
2018-06-21T13:52:34.611Z,47.46
2018-06-21T13:54:11.519Z,47.14
2018-06-21T13:55:48.311Z,47.41
2018-06-21T13:57:27.873Z,46.78
2018-06-21T13:59:06.499Z,47.30
2018-06-21T14:00:50.538Z,46.82
2018-06-21T14:02:29.584Z,47.13
2018-06-21T14:04:07.630Z,46.75
2018-06-21T14:05:45.569Z,47.15
2018-06-21T14:07:23.255Z,46.64
2018-06-21T14:09:10.296Z,47.19
2018-06-21T14:10:49.506Z,47.39
2018-06-21T14:12:28.652Z,46.46
2018-06-21T14:14:16.424Z,46.46
2018-06-21T14:15:59.023Z,46.48
2018-06-21T14:17:37.274Z,46.48
2018-06-21T14:19:15.125Z,46.97
2018-06-21T14:20:52.205Z,46.48
2018-06-21T14:22:34.501Z,46.30
2018-06-21T14:24:13.641Z,46.84
2018-06-21T14:25:50.331Z,46.24
2018-06-21T14:27:27.451Z,46.76
2018-06-21T14:29:05.338Z,46.12
2018-06-21T14:30:42.758Z,46.63
2018-06-21T14:33:54.699Z,45.98
2018-06-21T14:35:32.518Z,46.59
2018-06-21T14:37:08.726Z,46.01
2018-06-21T14:38:48.493Z,46.56
2018-06-21T14:40:27.540Z,46.39
2018-06-21T14:42:06.394Z,46.30
2018-06-21T14:43:45.587Z,46.47
2018-06-21T14:45:22.328Z,46.45
2018-06-21T14:46:59.542Z,46.14
2018-06-21T14:48:35.757Z,45.97
2018-06-21T14:50:14.232Z,46.34
2018-06-21T14:51:51.705Z,45.83
2018-06-21T14:53:28.616Z,46.28
2018-06-21T14:55:05.495Z,45.78
2018-06-21T14:56:45.621Z,45.64
2018-06-21T14:58:23.669Z,46.24
2018-06-21T15:00:01.885Z,45.80
2018-06-21T15:01:41.824Z,46.07
2018-06-21T15:03:18.897Z,45.65
2018-06-21T15:04:56.266Z,45.83
2018-06-21T15:06:36.564Z,46.19
2018-06-21T15:08:15.834Z,46.09
2018-06-21T15:09:57.532Z,45.45
2018-06-21T15:11:34.992Z,45.46
2018-06-21T15:13:12.683Z,45.62
2018-06-21T15:14:48.967Z,45.16
2018-06-21T15:16:26.085Z,45.35
2018-06-21T15:18:03.879Z,45.36
2018-06-21T15:19:40.742Z,45.86
2018-06-21T15:21:20.287Z,45.29
2018-06-21T15:22:56.587Z,45.78
2018-06-21T15:24:35.659Z,45.43
2018-06-21T15:26:12.575Z,45.27
2018-06-21T15:27:49.911Z,45.15
2018-06-21T15:29:28.824Z,45.23
2018-06-21T15:31:07.855Z,45.80
2018-06-21T15:32:45.553Z,45.65
2018-06-21T15:34:22.424Z,45.21
2018-06-21T15:35:59.530Z,45.47
2018-06-21T15:37:40.500Z,45.55
2018-06-21T15:39:25.017Z,45.39
2018-06-21T15:41:01.424Z,45.49
2018-06-21T15:42:38.627Z,45.50
2018-06-21T15:44:20.641Z,45.45
2018-06-21T15:45:57.192Z,45.44
2018-06-21T15:47:34.319Z,45.56
2018-06-21T15:49:11.403Z,45.01
2018-06-21T15:50:50.602Z,45.33
2018-06-21T15:52:28.318Z,45.28
2018-06-21T15:54:08.433Z,45.31
2018-06-21T15:55:47.650Z,45.39
2018-06-21T15:57:26.223Z,45.25
2018-06-21T15:59:04.338Z,44.94
2018-06-21T16:00:42.651Z,44.72
2018-06-21T16:02:21.281Z,45.24
2018-06-21T16:03:58.238Z,44.76
2018-06-21T16:05:36.833Z,44.80
2018-06-21T16:07:20.649Z,44.92
2018-06-21T16:08:56.894Z,45.10
2018-06-21T16:10:34.383Z,44.57
2018-06-21T16:12:10.672Z,45.11
2018-06-21T16:13:46.897Z,44.71
2018-06-21T16:15:27.632Z,45.06
2018-06-21T16:17:05.486Z,44.65
2018-06-21T16:18:41.654Z,44.55
2018-06-21T16:20:19.789Z,44.79
2018-06-21T16:21:57.649Z,44.46
2018-06-21T16:23:34.566Z,44.58
2018-06-21T16:25:11.525Z,44.58
2018-06-21T16:26:48.424Z,44.71
2018-06-21T16:28:28.267Z,44.62
2018-06-21T16:30:05.194Z,44.38
2018-06-21T16:31:44.458Z,45.00
2018-06-21T16:33:21.343Z,44.34
2018-06-21T16:34:59.889Z,44.86
2018-06-21T16:36:36.303Z,44.96
2018-06-21T16:38:12.541Z,44.71
2018-06-21T16:39:49.543Z,44.98
2018-06-21T16:41:28.669Z,44.98
2018-06-21T16:43:05.456Z,44.39
2018-06-21T16:44:56.540Z,44.55
2018-06-21T16:46:34.996Z,44.38
2018-06-21T16:48:14.219Z,44.32
2018-06-21T16:49:52.163Z,44.75
2018-06-21T16:51:33.838Z,44.30
2018-06-21T16:53:15.251Z,44.31
2018-06-21T16:54:52.114Z,44.78
2018-06-21T16:56:28.501Z,44.16
2018-06-21T16:58:06.513Z,44.21
2018-06-21T16:59:45.470Z,44.63
2018-06-21T17:01:28.821Z,44.09
2018-06-21T17:03:05.536Z,44.33
2018-06-21T17:04:43.399Z,44.22
2018-06-21T17:06:20.200Z,44.22
2018-06-21T17:08:02.334Z,44.09
2018-06-21T17:09:43.763Z,44.12
2018-06-21T17:11:20.027Z,44.66
2018-06-21T17:13:03.275Z,44.14
2018-06-21T17:14:41.085Z,43.99
2018-06-21T17:16:18.420Z,44.63
2018-06-21T17:17:57.213Z,44.08
2018-06-21T17:19:34.886Z,44.54
2018-06-21T17:21:12.398Z,44.53
2018-06-21T17:22:49.270Z,44.01
2018-06-21T17:24:26.462Z,43.93
2018-06-21T17:26:04.339Z,44.43
2018-06-21T17:27:49.984Z,44.39
2018-06-21T17:29:26.417Z,44.07
2018-06-21T17:31:02.420Z,43.98
2018-06-21T17:32:39.577Z,44.12
2018-06-21T17:34:18.851Z,44.02
2018-06-21T17:35:56.521Z,44.36
2018-06-21T17:37:33.853Z,44.52
2018-06-21T17:39:12.491Z,44.46
2018-06-21T17:40:48.760Z,43.93
2018-06-21T17:42:26.192Z,44.16
2018-06-21T17:44:04.738Z,44.18
2018-06-21T17:45:41.021Z,44.40
2018-06-21T17:47:20.777Z,43.88
2018-06-21T17:48:57.682Z,44.04
2018-06-21T17:50:37.422Z,44.31
2018-06-21T17:52:14.749Z,43.72
2018-06-21T17:53:52.992Z,43.90
2018-06-21T17:55:32.946Z,44.32
2018-06-21T17:57:10.587Z,44.29
2018-06-21T17:58:46.924Z,43.88
2018-06-21T18:00:27.898Z,44.20
2018-06-21T18:02:04.173Z,43.81
2018-06-21T18:03:41.552Z,43.78
2018-06-21T18:05:18.841Z,44.18
2018-06-21T18:06:56.437Z,43.75
2018-06-21T18:08:34.598Z,44.26
2018-06-21T18:10:13.652Z,44.26
2018-06-21T18:11:50.918Z,43.72
2018-06-21T18:13:28.710Z,44.15
2018-06-21T18:15:11.321Z,43.75
2018-06-21T18:16:51.307Z,43.71
2018-06-21T18:18:34.841Z,43.71
2018-06-21T18:20:12.176Z,43.68
2018-06-21T18:21:53.531Z,43.90
2018-06-21T18:23:32.639Z,44.28
2018-06-21T18:25:09.040Z,44.06
2018-06-21T18:26:45.409Z,43.56
2018-06-21T18:28:25.508Z,43.58
2018-06-21T18:30:06.053Z,43.68
2018-06-21T18:31:44.511Z,44.27
2018-06-21T18:33:23.810Z,43.73
2018-06-21T18:35:01.108Z,43.62
2018-06-21T18:36:40.262Z,44.13
2018-06-21T18:38:19.685Z,44.13
2018-06-21T18:39:57.137Z,43.65
2018-06-21T18:41:34.722Z,43.87
2018-06-21T18:43:13.716Z,43.76
2018-06-21T18:44:52.661Z,43.66
2018-06-21T18:46:31.458Z,43.81
2018-06-21T18:48:08.799Z,44.20
2018-06-21T18:49:46.749Z,43.56
2018-06-21T18:51:24.280Z,43.48
2018-06-21T18:53:03.473Z,43.96
2018-06-21T18:54:40.053Z,43.68
2018-06-21T18:56:19.909Z,43.56
2018-06-21T18:57:57.495Z,43.43
2018-06-21T18:59:33.810Z,43.62
2018-06-21T19:01:16.653Z,43.92
2018-06-21T19:02:55.052Z,43.82
2018-06-21T19:04:37.239Z,43.48
2018-06-21T19:06:24.607Z,43.64
2018-06-21T19:08:06.177Z,43.53
2018-06-21T19:09:49.384Z,43.62
2018-06-21T19:11:35.051Z,43.55
2018-06-21T19:13:14.672Z,43.60
2018-06-21T19:14:51.037Z,43.80
2018-06-21T19:16:30.261Z,43.46
2018-06-21T19:18:10.469Z,43.22
2018-06-21T19:19:48.519Z,43.37
2018-06-21T19:21:32.280Z,43.57
2018-06-21T19:23:17.815Z,43.59
2018-06-21T19:24:54.829Z,43.59
2018-06-21T19:26:35.334Z,43.55
2018-06-21T19:28:11.664Z,43.94
2018-06-21T19:29:49.201Z,43.47
2018-06-21T19:33:20.491Z,43.39
2018-06-21T19:35:00.220Z,43.99
2018-06-21T19:36:38.970Z,43.63
2018-06-21T19:38:17.944Z,43.50
2018-06-21T19:39:56.618Z,43.71
2018-06-21T19:41:36.329Z,43.63
2018-06-21T19:43:16.560Z,43.36
2018-06-21T19:44:57.346Z,43.81
2018-06-21T19:46:37.636Z,43.62
2018-06-21T19:48:16.821Z,43.43
2018-06-21T19:49:54.162Z,43.80
2018-06-21T19:51:33.523Z,43.36
2018-06-21T19:53:16.551Z,43.59
2018-06-21T19:54:57.625Z,43.60
2018-06-21T19:56:35.646Z,43.39
2018-06-21T19:58:17.608Z,43.92
2018-06-21T19:59:56.281Z,43.50
2018-06-21T20:01:42.527Z,43.37
2018-06-21T20:03:22.570Z,43.52
2018-06-21T20:05:02.437Z,44.01
2018-06-21T20:06:47.483Z,44.11
2018-06-21T20:09:02.117Z,43.87
2018-06-21T20:10:45.196Z,43.50
2018-06-21T20:12:24.652Z,43.87
2018-06-21T20:14:04.516Z,43.59
2018-06-21T20:15:53.668Z,43.39
2018-06-21T20:17:31.206Z,43.82
2018-06-21T20:19:19.948Z,43.41
2018-06-21T20:20:58.939Z,43.79
2018-06-21T20:22:39.228Z,43.52
2018-06-21T20:24:23.602Z,43.40
2018-06-21T20:26:02.553Z,43.40
2018-06-21T20:27:41.289Z,44.13
2018-06-21T20:29:25.644Z,43.78
2018-06-21T20:31:06.451Z,43.65
2018-06-21T20:32:46.714Z,43.52
2018-06-21T20:34:24.268Z,43.80
2018-06-21T20:36:07.772Z,43.66
2018-06-21T20:37:46.743Z,43.80
2018-06-21T20:39:32.608Z,43.85
2018-06-21T20:41:16.480Z,43.46
2018-06-21T20:42:56.360Z,43.80
2018-06-21T20:44:36.524Z,43.89
2018-06-21T20:46:17.135Z,44.10
2018-06-21T20:48:03.476Z,43.49
2018-06-21T20:49:45.695Z,43.68
2018-06-21T20:51:23.823Z,43.74
2018-06-21T20:53:02.458Z,43.72
2018-06-21T20:54:46.787Z,44.00
2018-06-21T20:56:27.308Z,43.97
2018-06-21T20:58:06.162Z,43.98
2018-06-21T20:59:44.488Z,43.54
2018-06-21T21:01:24.182Z,43.55
2018-06-21T21:03:05.511Z,43.96
2018-06-21T21:05:15.532Z,43.63
2018-06-21T21:06:53.250Z,43.71
2018-06-21T21:08:32.918Z,43.65
2018-06-21T21:10:13.285Z,43.96
2018-06-21T21:11:52.224Z,43.82
2018-06-21T21:13:31.719Z,43.97
2018-06-21T21:15:12.243Z,43.72
2018-06-21T21:16:53.386Z,43.99
2018-06-21T21:18:34.410Z,43.79
2018-06-21T21:20:12.873Z,43.61